sensor_id;sensor_type;location;lat;lon;timestamp;pressure;altitude;pressure_sealevel;temperature;humidity
9423;BME280;65863;49.506;10.400;2023-04-29T00:00:20;97564.25;;;10.03;100.00
9423;BME280;65863;49.506;10.400;2023-04-29T00:03:03;97628.25;;;10.43;100.00
9423;BME280;65863;49.506;10.400;2023-04-29T00:05:48;97600.91;;;10.28;100.00
9423;BME280;65863;49.506;10.400;2023-04-29T00:08:31;97651.78;;;10.56;100.00
9423;BME280;65863;49.506;10.400;2023-04-29T00:11:15;97621.09;;;10.27;100.00
9423;BME280;65863;49.506;10.400;2023-04-29T00:13:59;97628.94;;;10.05;100.00
9423;BME280;65863;49.506;10.400;2023-04-29T00:16:44;97639.97;;;9.95;100.00
9423;BME280;65863;49.506;10.400;2023-04-29T00:19:27;97623.13;;;9.95;100.00
9423;BME280;65863;49.506;10.400;2023-04-29T00:22:11;97624.44;;;9.94;100.00
9423;BME280;65863;49.506;10.400;2023-04-29T00:24:55;97623.53;;;9.99;100.00
9423;BME280;65863;49.506;10.400;2023-04-29T00:27:39;97615.81;;;9.77;100.00
9423;BME280;65863;49.506;10.400;2023-04-29T00:30:24;97637.34;;;9.90;100.00
9423;BME280;65863;49.506;10.400;2023-04-29T00:33:08;97642.72;;;9.80;100.00
9423;BME280;65863;49.506;10.400;2023-04-29T00:35:52;97626.94;;;9.54;100.00
9423;BME280;65863;49.506;10.400;2023-04-29T00:38:36;97626.16;;;9.38;100.00
9423;BME280;65863;49.506;10.400;2023-04-29T00:41:20;97613.81;;;9.33;100.00
9423;BME280;65863;49.506;10.400;2023-04-29T00:44:07;97643.75;;;9.54;100.00
9423;BME280;65863;49.506;10.400;2023-04-29T00:46:51;97617.38;;;9.34;100.00
9423;BME280;65863;49.506;10.400;2023-04-29T00:49:38;97623.69;;;9.34;100.00
9423;BME280;65863;49.506;10.400;2023-04-29T00:52:22;97625.59;;;9.32;100.00
9423;BME280;65863;49.506;10.400;2023-04-29T00:55:07;97641.72;;;9.10;100.00
9423;BME280;65863;49.506;10.400;2023-04-29T00:57:52;97628.63;;;9.05;100.00
9423;BME280;65863;49.506;10.400;2023-04-29T01:00:36;97648.81;;;9.11;100.00
9423;BME280;65863;49.506;10.400;2023-04-29T01:03:20;97623.78;;;9.05;100.00
9423;BME280;65863;49.506;10.400;2023-04-29T01:06:41;97637.94;;;9.44;100.00
9423;BME280;65863;49.506;10.400;2023-04-29T01:09:49;97649.34;;;9.46;100.00
9423;BME280;65863;49.506;10.400;2023-04-29T01:12:53;97628.00;;;9.35;100.00
9423;BME280;65863;49.506;10.400;2023-04-29T01:15:50;97655.00;;;9.61;100.00
9423;BME280;65863;49.506;10.400;2023-04-29T01:18:40;97658.72;;;9.56;100.00
9423;BME280;65863;49.506;10.400;2023-04-29T01:21:25;97617.47;;;9.12;100.00
9423;BME280;65863;49.506;10.400;2023-04-29T01:24:08;97632.28;;;9.28;100.00
9423;BME280;65863;49.506;10.400;2023-04-29T01:27:06;97626.47;;;9.19;100.00
9423;BME280;65863;49.506;10.400;2023-04-29T01:34:08;97651.19;;;9.36;100.00
9423;BME280;65863;49.506;10.400;2023-04-29T01:37:13;97636.56;;;9.22;100.00
9423;BME280;65863;49.506;10.400;2023-04-29T01:40:18;97660.56;;;9.46;100.00
9423;BME280;65863;49.506;10.400;2023-04-29T01:43:21;97639.38;;;9.29;100.00
9423;BME280;65863;49.506;10.400;2023-04-29T01:46:11;97652.47;;;9.35;100.00
9423;BME280;65863;49.506;10.400;2023-04-29T01:48:57;97587.28;;;8.82;100.00
9423;BME280;65863;49.506;10.400;2023-04-29T01:51:51;97639.44;;;9.01;100.00
9423;BME280;65863;49.506;10.400;2023-04-29T01:54:35;97601.66;;;8.57;100.00
9423;BME280;65863;49.506;10.400;2023-04-29T01:57:20;97624.47;;;8.90;100.00
9423;BME280;65863;49.506;10.400;2023-04-29T02:00:13;97645.44;;;9.05;100.00
9423;BME280;65863;49.506;10.400;2023-04-29T02:02:57;97660.47;;;9.23;100.00
9423;BME280;65863;49.506;10.400;2023-04-29T02:05:56;97639.19;;;9.27;100.00
9423;BME280;65863;49.506;10.400;2023-04-29T02:08:42;97615.84;;;9.33;100.00
9423;BME280;65863;49.506;10.400;2023-04-29T02:11:26;97621.63;;;9.27;100.00
9423;BME280;65863;49.506;10.400;2023-04-29T02:14:13;97644.81;;;9.27;100.00
9423;BME280;65863;49.506;10.400;2023-04-29T02:16:57;97631.13;;;9.24;100.00
9423;BME280;65863;49.506;10.400;2023-04-29T02:19:41;97591.44;;;8.89;100.00
9423;BME280;65863;49.506;10.400;2023-04-29T02:22:25;97646.06;;;9.19;100.00
9423;BME280;65863;49.506;10.400;2023-04-29T02:25:12;97623.59;;;8.74;100.00
9423;BME280;65863;49.506;10.400;2023-04-29T02:27:56;97601.56;;;8.71;100.00
9423;BME280;65863;49.506;10.400;2023-04-29T02:30:40;97635.28;;;8.94;100.00
9423;BME280;65863;49.506;10.400;2023-04-29T02:33:24;97636.91;;;9.18;100.00
9423;BME280;65863;49.506;10.400;2023-04-29T02:36:08;97654.03;;;9.51;100.00
9423;BME280;65863;49.506;10.400;2023-04-29T02:38:52;97554.16;;;9.02;100.00
9423;BME280;65863;49.506;10.400;2023-04-29T02:41:38;97625.50;;;9.60;100.00
9423;BME280;65863;49.506;10.400;2023-04-29T02:44:22;97603.81;;;9.53;100.00
9423;BME280;65863;49.506;10.400;2023-04-29T02:47:06;97612.66;;;9.28;100.00
9423;BME280;65863;49.506;10.400;2023-04-29T02:49:50;97593.75;;;9.13;100.00
9423;BME280;65863;49.506;10.400;2023-04-29T02:52:34;97647.72;;;9.58;100.00
9423;BME280;65863;49.506;10.400;2023-04-29T02:55:18;97612.72;;;9.44;100.00
9423;BME280;65863;49.506;10.400;2023-04-29T02:58:02;97633.16;;;9.68;100.00
9423;BME280;65863;49.506;10.400;2023-04-29T03:01:04;97648.16;;;9.93;100.00
9423;BME280;65863;49.506;10.400;2023-04-29T03:03:48;97618.06;;;9.78;100.00
9423;BME280;65863;49.506;10.400;2023-04-29T03:06:32;97627.25;;;10.02;100.00
9423;BME280;65863;49.506;10.400;2023-04-29T03:09:16;97639.25;;;10.18;100.00
9423;BME280;65863;49.506;10.400;2023-04-29T03:12:03;97627.81;;;10.16;100.00
9423;BME280;65863;49.506;10.400;2023-04-29T03:14:47;97601.63;;;9.90;100.00
9423;BME280;65863;49.506;10.400;2023-04-29T03:17:31;97609.47;;;9.92;100.00
9423;BME280;65863;49.506;10.400;2023-04-29T03:20:16;97645.38;;;10.09;100.00
9423;BME280;65863;49.506;10.400;2023-04-29T03:23:00;97662.78;;;10.23;100.00
9423;BME280;65863;49.506;10.400;2023-04-29T03:26:05;97664.88;;;10.22;100.00
9423;BME280;65863;49.506;10.400;2023-04-29T03:28:50;97643.34;;;10.09;100.00
9423;BME280;65863;49.506;10.400;2023-04-29T03:31:34;97660.53;;;10.13;100.00
9423;BME280;65863;49.506;10.400;2023-04-29T03:34:19;97661.09;;;10.12;100.00
9423;BME280;65863;49.506;10.400;2023-04-29T03:37:10;97643.88;;;9.92;100.00
9423;BME280;65863;49.506;10.400;2023-04-29T03:39:57;97658.09;;;9.94;100.00
9423;BME280;65863;49.506;10.400;2023-04-29T03:42:41;97647.22;;;9.91;100.00
9423;BME280;65863;49.506;10.400;2023-04-29T03:45:25;97665.00;;;9.93;100.00
9423;BME280;65863;49.506;10.400;2023-04-29T03:48:09;97674.13;;;9.86;100.00
9423;BME280;65863;49.506;10.400;2023-04-29T03:50:55;97645.84;;;9.61;100.00
9423;BME280;65863;49.506;10.400;2023-04-29T03:53:40;97647.91;;;9.68;100.00
9423;BME280;65863;49.506;10.400;2023-04-29T03:56:25;97652.03;;;9.67;100.00
9423;BME280;65863;49.506;10.400;2023-04-29T03:59:10;97666.63;;;9.73;100.00
9423;BME280;65863;49.506;10.400;2023-04-29T04:01:58;97664.19;;;9.70;100.00
9423;BME280;65863;49.506;10.400;2023-04-29T04:04:42;97667.56;;;9.76;100.00
9423;BME280;65863;49.506;10.400;2023-04-29T04:07:27;97665.91;;;9.80;100.00
9423;BME280;65863;49.506;10.400;2023-04-29T04:10:29;97685.59;;;10.04;100.00
9423;BME280;65863;49.506;10.400;2023-04-29T04:13:15;97672.44;;;9.91;100.00
9423;BME280;65863;49.506;10.400;2023-04-29T04:16:00;97681.84;;;10.01;100.00
9423;BME280;65863;49.506;10.400;2023-04-29T04:18:44;97670.03;;;9.87;100.00
9423;BME280;65863;49.506;10.400;2023-04-29T04:21:28;97644.69;;;9.48;100.00
9423;BME280;65863;49.506;10.400;2023-04-29T04:24:22;97672.47;;;9.39;100.00
9423;BME280;65863;49.506;10.400;2023-04-29T04:27:06;97690.97;;;9.42;100.00
9423;BME280;65863;49.506;10.400;2023-04-29T04:29:55;97672.81;;;9.35;100.00
9423;BME280;65863;49.506;10.400;2023-04-29T04:32:44;97657.03;;;9.09;100.00
9423;BME280;65863;49.506;10.400;2023-04-29T04:35:29;97701.22;;;9.32;100.00
9423;BME280;65863;49.506;10.400;2023-04-29T04:38:14;97703.47;;;9.41;100.00
9423;BME280;65863;49.506;10.400;2023-04-29T04:40:58;97711.34;;;9.42;100.00
9423;BME280;65863;49.506;10.400;2023-04-29T04:43:53;97702.03;;;9.47;100.00
9423;BME280;65863;49.506;10.400;2023-04-29T04:46:47;97695.47;;;9.45;100.00
9423;BME280;65863;49.506;10.400;2023-04-29T04:49:35;97703.94;;;9.60;100.00
9423;BME280;65863;49.506;10.400;2023-04-29T04:52:19;97726.81;;;9.80;100.00
9423;BME280;65863;49.506;10.400;2023-04-29T04:55:07;97690.31;;;9.64;100.00
9423;BME280;65863;49.506;10.400;2023-04-29T04:58:01;97697.28;;;9.79;100.00
9423;BME280;65863;49.506;10.400;2023-04-29T05:00:45;97700.88;;;9.87;100.00
9423;BME280;65863;49.506;10.400;2023-04-29T05:03:30;97704.84;;;9.99;100.00
9423;BME280;65863;49.506;10.400;2023-04-29T05:06:13;97710.84;;;10.19;100.00
9423;BME280;65863;49.506;10.400;2023-04-29T05:09:01;97716.44;;;10.11;100.00
9423;BME280;65863;49.506;10.400;2023-04-29T05:11:46;97705.75;;;10.02;100.00
9423;BME280;65863;49.506;10.400;2023-04-29T05:14:33;97740.03;;;10.31;100.00
9423;BME280;65863;49.506;10.400;2023-04-29T05:17:17;97692.13;;;10.06;100.00
9423;BME280;65863;49.506;10.400;2023-04-29T05:20:01;97712.69;;;10.09;100.00
9423;BME280;65863;49.506;10.400;2023-04-29T05:22:46;97717.72;;;10.03;100.00
9423;BME280;65863;49.506;10.400;2023-04-29T05:25:31;97743.38;;;10.14;100.00
9423;BME280;65863;49.506;10.400;2023-04-29T05:28:16;97734.78;;;10.12;100.00
9423;BME280;65863;49.506;10.400;2023-04-29T05:31:00;97723.72;;;10.07;100.00
9423;BME280;65863;49.506;10.400;2023-04-29T05:33:46;97750.38;;;10.37;100.00
9423;BME280;65863;49.506;10.400;2023-04-29T05:36:30;97751.34;;;10.55;100.00
9423;BME280;65863;49.506;10.400;2023-04-29T05:39:15;97722.91;;;10.50;100.00
9423;BME280;65863;49.506;10.400;2023-04-29T05:42:00;97736.56;;;10.70;100.00
9423;BME280;65863;49.506;10.400;2023-04-29T05:44:55;97710.38;;;10.59;100.00
9423;BME280;65863;49.506;10.400;2023-04-29T05:47:39;97652.91;;;10.37;100.00
9423;BME280;65863;49.506;10.400;2023-04-29T05:50:23;97772.31;;;11.23;100.00
9423;BME280;65863;49.506;10.400;2023-04-29T05:53:08;97707.94;;;10.79;100.00
9423;BME280;65863;49.506;10.400;2023-04-29T05:55:52;97684.34;;;10.66;100.00
9423;BME280;65863;49.506;10.400;2023-04-29T05:58:38;97757.69;;;11.25;100.00
9423;BME280;65863;49.506;10.400;2023-04-29T06:01:22;97698.94;;;10.88;100.00
9423;BME280;65863;49.506;10.400;2023-04-29T06:04:06;97755.81;;;11.27;100.00
9423;BME280;65863;49.506;10.400;2023-04-29T06:07:04;97689.59;;;10.78;100.00
9423;BME280;65863;49.506;10.400;2023-04-29T06:10:07;97752.44;;;11.21;100.00
9423;BME280;65863;49.506;10.400;2023-04-29T06:12:52;97774.88;;;11.36;100.00
9423;BME280;65863;49.506;10.400;2023-04-29T06:15:36;97789.09;;;11.46;100.00
9423;BME280;65863;49.506;10.400;2023-04-29T06:18:20;97780.91;;;11.33;99.86
9423;BME280;65863;49.506;10.400;2023-04-29T06:21:04;97805.56;;;11.58;99.66
9423;BME280;65863;49.506;10.400;2023-04-29T06:23:50;97755.81;;;11.27;98.97
9423;BME280;65863;49.506;10.400;2023-04-29T06:26:35;97768.91;;;11.32;98.65
9423;BME280;65863;49.506;10.400;2023-04-29T06:29:20;97794.91;;;11.56;98.25
9423;BME280;65863;49.506;10.400;2023-04-29T06:32:03;97784.59;;;11.51;97.88
9423;BME280;65863;49.506;10.400;2023-04-29T06:34:48;97804.44;;;11.68;97.56
9423;BME280;65863;49.506;10.400;2023-04-29T06:37:53;97788.72;;;11.58;97.16
9423;BME280;65863;49.506;10.400;2023-04-29T06:44:52;97810.22;;;11.94;96.54
9423;BME280;65863;49.506;10.400;2023-04-29T06:47:44;97819.50;;;12.12;96.10
9423;BME280;65863;49.506;10.400;2023-04-29T06:50:30;97795.31;;;12.09;95.51
9423;BME280;65863;49.506;10.400;2023-04-29T06:53:14;97833.28;;;12.40;95.10
9423;BME280;65863;49.506;10.400;2023-04-29T06:56:10;97811.88;;;12.37;94.47
9423;BME280;65863;49.506;10.400;2023-04-29T06:58:54;97844.22;;;12.62;93.72
9423;BME280;65863;49.506;10.400;2023-04-29T07:01:38;97799.16;;;12.29;92.81
9423;BME280;65863;49.506;10.400;2023-04-29T07:04:22;97818.84;;;12.36;92.50
9423;BME280;65863;49.506;10.400;2023-04-29T07:07:06;97818.84;;;12.36;92.02
9423;BME280;65863;49.506;10.400;2023-04-29T07:09:51;97831.75;;;12.39;91.87
9423;BME280;65863;49.506;10.400;2023-04-29T07:12:37;97843.75;;;12.48;91.98
9423;BME280;65863;49.506;10.400;2023-04-29T07:15:21;97817.13;;;12.41;91.75
9423;BME280;65863;49.506;10.400;2023-04-29T07:18:05;97813.94;;;12.37;91.53
9423;BME280;65863;49.506;10.400;2023-04-29T07:20:50;97855.44;;;12.69;91.26
9423;BME280;65863;49.506;10.400;2023-04-29T07:23:35;97799.50;;;12.40;90.90
9423;BME280;65863;49.506;10.400;2023-04-29T07:26:19;97811.19;;;12.62;90.52
9423;BME280;65863;49.506;10.400;2023-04-29T07:29:04;97823.06;;;12.86;89.88
9423;BME280;65863;49.506;10.400;2023-04-29T07:31:48;97832.00;;;12.92;89.55
9423;BME280;65863;49.506;10.400;2023-04-29T07:34:32;97843.97;;;13.00;88.78
9423;BME280;65863;49.506;10.400;2023-04-29T07:37:17;97833.09;;;12.97;88.31
9423;BME280;65863;49.506;10.400;2023-04-29T07:40:01;97837.94;;;13.04;87.71
9423;BME280;65863;49.506;10.400;2023-04-29T07:42:45;97856.09;;;13.11;86.84
9423;BME280;65863;49.506;10.400;2023-04-29T07:45:29;97869.75;;;13.22;86.17
9423;BME280;65863;49.506;10.400;2023-04-29T07:48:13;97822.34;;;12.78;85.74
9423;BME280;65863;49.506;10.400;2023-04-29T07:51:00;97853.91;;;13.26;85.45
9423;BME280;65863;49.506;10.400;2023-04-29T07:53:45;97830.28;;;13.22;85.10
9423;BME280;65863;49.506;10.400;2023-04-29T07:56:30;97872.69;;;13.57;84.79
9423;BME280;65863;49.506;10.400;2023-04-29T07:59:14;97838.31;;;13.51;83.90
9423;BME280;65863;49.506;10.400;2023-04-29T08:01:59;97887.97;;;13.71;83.05
9423;BME280;65863;49.506;10.400;2023-04-29T08:04:43;97870.00;;;13.41;82.10
9423;BME280;65863;49.506;10.400;2023-04-29T08:07:29;97885.66;;;13.52;81.46
9423;BME280;65863;49.506;10.400;2023-04-29T08:10:16;97839.78;;;13.09;80.53
9423;BME280;65863;49.506;10.400;2023-04-29T08:13:13;97878.09;;;13.63;79.87
9423;BME280;65863;49.506;10.400;2023-04-29T08:15:58;97872.69;;;13.57;79.78
9423;BME280;65863;49.506;10.400;2023-04-29T08:18:42;97707.72;;;12.37;79.66
9423;BME280;65863;49.506;10.400;2023-04-29T08:21:26;97883.72;;;13.63;79.78
9423;BME280;65863;49.506;10.400;2023-04-29T08:24:11;97900.91;;;13.92;79.69
9423;BME280;65863;49.506;10.400;2023-04-29T08:26:55;97900.78;;;14.25;78.20
9423;BME280;65863;49.506;10.400;2023-04-29T08:29:39;97895.03;;;14.33;77.13
9423;BME280;65863;49.506;10.400;2023-04-29T08:32:23;97887.44;;;14.53;76.55
9423;BME280;65863;49.506;10.400;2023-04-29T08:35:08;97920.06;;;14.81;75.35
9423;BME280;65863;49.506;10.400;2023-04-29T08:38:10;97887.84;;;14.67;74.80
9423;BME280;65863;49.506;10.400;2023-04-29T08:40:54;97896.69;;;14.53;74.13
9423;BME280;65863;49.506;10.400;2023-04-29T08:43:39;97895.28;;;14.09;73.34
9423;BME280;65863;49.506;10.400;2023-04-29T08:46:24;97902.09;;;14.06;73.81
9423;BME280;65863;49.506;10.400;2023-04-29T08:49:12;97929.34;;;14.29;74.06
9423;BME280;65863;49.506;10.400;2023-04-29T08:51:58;97929.31;;;14.11;74.66
9423;BME280;65863;49.506;10.400;2023-04-29T08:54:43;97916.84;;;13.80;75.23
9423;BME280;65863;49.506;10.400;2023-04-29T08:57:29;97933.47;;;13.93;75.38
9423;BME280;65863;49.506;10.400;2023-04-29T09:00:13;97868.34;;;13.56;75.86
9423;BME280;65863;49.506;10.400;2023-04-29T09:06:09;97937.59;;;13.92;75.22
9423;BME280;65863;49.506;10.400;2023-04-29T09:08:53;97906.19;;;13.70;75.40
9423;BME280;65863;49.506;10.400;2023-04-29T09:11:52;97931.63;;;13.88;75.82
9423;BME280;65863;49.506;10.400;2023-04-29T09:14:38;97932.78;;;13.85;75.92
9423;BME280;65863;49.506;10.400;2023-04-29T09:17:44;97942.75;;;14.03;76.30
9423;BME280;65863;49.506;10.400;2023-04-29T09:20:49;97946.94;;;14.20;75.28
9423;BME280;65863;49.506;10.400;2023-04-29T09:23:36;97919.38;;;14.28;74.73
9423;BME280;65863;49.506;10.400;2023-04-29T09:26:21;97941.97;;;14.63;73.75
9423;BME280;65863;49.506;10.400;2023-04-29T09:29:15;97929.97;;;14.72;72.48
9423;BME280;65863;49.506;10.400;2023-04-29T09:32:17;97946.72;;;14.88;71.75
9423;BME280;65863;49.506;10.400;2023-04-29T09:38:14;97949.56;;;14.53;71.83
9423;BME280;65863;49.506;10.400;2023-04-29T09:40:58;97878.34;;;13.74;72.62
9423;BME280;65863;49.506;10.400;2023-04-29T09:43:42;97919.19;;;14.26;72.78
9423;BME280;65863;49.506;10.400;2023-04-29T09:46:27;97911.72;;;14.21;72.25
9423;BME280;65863;49.506;10.400;2023-04-29T09:49:29;97938.28;;;14.35;71.79
9423;BME280;65863;49.506;10.400;2023-04-29T09:52:14;97964.03;;;14.57;71.88
9423;BME280;65863;49.506;10.400;2023-04-29T09:55:03;97885.81;;;13.80;71.14
9423;BME280;65863;49.506;10.400;2023-04-29T09:57:48;97944.81;;;13.85;71.24
9423;BME280;65863;49.506;10.400;2023-04-29T10:00:32;97964.03;;;14.57;72.14
9423;BME280;65863;49.506;10.400;2023-04-29T10:03:16;97971.75;;;14.74;71.57
9423;BME280;65863;49.506;10.400;2023-04-29T10:06:02;97926.84;;;14.33;70.37
9423;BME280;65863;49.506;10.400;2023-04-29T10:08:46;97980.97;;;14.57;69.66
9423;BME280;65863;49.506;10.400;2023-04-29T10:11:32;97954.03;;;14.03;69.52
9423;BME280;65863;49.506;10.400;2023-04-29T10:14:19;97982.84;;;14.02;70.19
9423;BME280;65863;49.506;10.400;2023-04-29T10:17:11;97957.63;;;14.04;71.30
9423;BME280;65863;49.506;10.400;2023-04-29T10:20:04;97986.88;;;14.34;71.39
9423;BME280;65863;49.506;10.400;2023-04-29T10:22:52;97947.50;;;14.53;71.07
9423;BME280;65863;49.506;10.400;2023-04-29T10:25:41;97989.94;;;14.45;69.77
9423;BME280;65863;49.506;10.400;2023-04-29T10:28:31;97973.78;;;14.63;69.51
9423;BME280;65863;49.506;10.400;2023-04-29T10:31:15;97952.84;;;14.49;69.13
9423;BME280;65863;49.506;10.400;2023-04-29T10:34:00;97970.09;;;14.53;68.84
9423;BME280;65863;49.506;10.400;2023-04-29T10:36:45;97947.59;;;14.10;68.39
9423;BME280;65863;49.506;10.400;2023-04-29T10:39:36;97975.50;;;14.59;68.30
9423;BME280;65863;49.506;10.400;2023-04-29T10:45:29;97979.75;;;14.68;67.67
9423;BME280;65863;49.506;10.400;2023-04-29T10:48:20;97944.94;;;14.65;67.63
9423;BME280;65863;49.506;10.400;2023-04-29T10:51:07;97907.75;;;14.06;67.54
9423;BME280;65863;49.506;10.400;2023-04-29T10:54:08;97938.94;;;14.61;67.79
9423;BME280;65863;49.506;10.400;2023-04-29T10:56:54;97901.25;;;14.31;67.79
9423;BME280;65863;49.506;10.400;2023-04-29T11:02:22;97955.34;;;14.27;67.66
9423;BME280;65863;49.506;10.400;2023-04-29T11:05:11;97966.38;;;14.51;68.32
9423;BME280;65863;49.506;10.400;2023-04-29T11:08:11;97967.25;;;14.88;68.58
9423;BME280;65863;49.506;10.400;2023-04-29T11:11:22;97968.94;;;14.91;68.06
9423;BME280;65863;49.506;10.400;2023-04-29T11:14:08;97941.28;;;14.72;67.23
9423;BME280;65863;49.506;10.400;2023-04-29T11:16:58;97952.72;;;14.92;66.13
9423;BME280;65863;49.506;10.400;2023-04-29T11:19:49;97950.94;;;14.96;65.21
9423;BME280;65863;49.506;10.400;2023-04-29T11:22:33;97953.41;;;14.65;63.87
9423;BME280;65863;49.506;10.400;2023-04-29T11:25:17;97970.50;;;14.50;63.58
9423;BME280;65863;49.506;10.400;2023-04-29T11:28:02;97975.91;;;14.73;64.56
9423;BME280;65863;49.506;10.400;2023-04-29T11:30:51;97954.41;;;14.42;64.35
9423;BME280;65863;49.506;10.400;2023-04-29T11:33:36;97972.03;;;14.33;64.64
9423;BME280;65863;49.506;10.400;2023-04-29T11:36:20;97933.47;;;13.93;65.24
9423;BME280;65863;49.506;10.400;2023-04-29T11:42:10;97932.81;;;13.59;67.16
9423;BME280;65863;49.506;10.400;2023-04-29T11:44:57;97962.97;;;13.74;67.32
9423;BME280;65863;49.506;10.400;2023-04-29T11:47:44;97990.41;;;13.99;67.11
9423;BME280;65863;49.506;10.400;2023-04-29T11:50:29;97993.41;;;14.01;66.97
9423;BME280;65863;49.506;10.400;2023-04-29T11:53:22;97945.88;;;13.72;67.10
9423;BME280;65863;49.506;10.400;2023-04-29T11:56:08;97970.00;;;14.08;67.25
9423;BME280;65863;49.506;10.400;2023-04-29T11:58:55;98000.00;;;14.39;66.80
9423;BME280;65863;49.506;10.400;2023-04-29T12:01:40;97977.16;;;14.27;66.28
9423;BME280;65863;49.506;10.400;2023-04-29T12:04:25;97917.69;;;13.90;65.97
9423;BME280;65863;49.506;10.400;2023-04-29T12:07:16;97698.28;;;12.17;65.50
9423;BME280;65863;49.506;10.400;2023-04-29T12:10:01;97975.75;;;13.75;65.91
9423;BME280;65863;49.506;10.400;2023-04-29T12:12:45;97875.13;;;13.02;66.26
9423;BME280;65863;49.506;10.400;2023-04-29T12:15:31;97967.53;;;13.70;66.76
9423;BME280;65863;49.506;10.400;2023-04-29T12:18:19;98006.13;;;13.85;66.50
9423;BME280;65863;49.506;10.400;2023-04-29T12:21:05;97973.66;;;13.76;66.26
9423;BME280;65863;49.506;10.400;2023-04-29T12:23:50;97933.44;;;13.50;66.08
9423;BME280;65863;49.506;10.400;2023-04-29T12:26:35;98001.94;;;13.68;65.62
9423;BME280;65863;49.506;10.400;2023-04-29T12:29:20;98022.16;;;13.82;65.41
9423;BME280;65863;49.506;10.400;2023-04-29T12:32:06;97993.47;;;13.93;65.19
9423;BME280;65863;49.506;10.400;2023-04-29T12:34:51;97995.44;;;14.43;65.43
9423;BME280;65863;49.506;10.400;2023-04-29T12:37:38;97985.66;;;14.44;64.51
9423;BME280;65863;49.506;10.400;2023-04-29T12:40:22;98001.94;;;14.71;63.81
9423;BME280;65863;49.506;10.400;2023-04-29T12:43:07;98008.16;;;14.70;63.74
9423;BME280;65863;49.506;10.400;2023-04-29T12:45:59;97972.75;;;14.34;63.21
9423;BME280;65863;49.506;10.400;2023-04-29T12:48:45;98007.97;;;14.33;63.17
9423;BME280;65863;49.506;10.400;2023-04-29T12:51:34;97971.50;;;14.09;63.11
9423;BME280;65863;49.506;10.400;2023-04-29T12:54:18;98023.78;;;14.53;63.41
9423;BME280;65863;49.506;10.400;2023-04-29T12:57:02;97995.91;;;14.15;63.27
9423;BME280;65863;49.506;10.400;2023-04-29T12:59:46;98012.44;;;14.36;63.96
9423;BME280;65863;49.506;10.400;2023-04-29T13:02:33;98020.56;;;14.14;63.57
9423;BME280;65863;49.506;10.400;2023-04-29T13:05:17;98004.69;;;14.19;63.77
9423;BME280;65863;49.506;10.400;2023-04-29T13:08:02;98000.81;;;14.32;64.13
9423;BME280;65863;49.506;10.400;2023-04-29T13:10:48;97999.91;;;14.46;63.54
9423;BME280;65863;49.506;10.400;2023-04-29T13:13:32;98005.59;;;14.64;63.47
9423;BME280;65863;49.506;10.400;2023-04-29T13:16:18;97954.50;;;14.35;63.38
9423;BME280;65863;49.506;10.400;2023-04-29T13:19:02;97975.31;;;14.57;62.99
9423;BME280;65863;49.506;10.400;2023-04-29T13:21:46;97977.34;;;14.46;63.15
9423;BME280;65863;49.506;10.400;2023-04-29T13:24:31;97995.94;;;14.32;62.91
9423;BME280;65863;49.506;10.400;2023-04-29T13:27:15;97983.19;;;14.06;63.07
9423;BME280;65863;49.506;10.400;2023-04-29T13:29:59;98024.31;;;14.34;63.83
9423;BME280;65863;49.506;10.400;2023-04-29T13:32:43;97993.16;;;14.24;64.40
9423;BME280;65863;49.506;10.400;2023-04-29T13:35:28;97976.81;;;14.05;64.16
9423;BME280;65863;49.506;10.400;2023-04-29T13:38:12;97994.91;;;14.20;64.10
9423;BME280;65863;49.506;10.400;2023-04-29T13:40:56;97993.41;;;14.19;64.40
9423;BME280;65863;49.506;10.400;2023-04-29T13:43:40;97977.72;;;14.08;65.21
9423;BME280;65863;49.506;10.400;2023-04-29T13:46:24;98017.03;;;14.49;65.37
9423;BME280;65863;49.506;10.400;2023-04-29T13:49:08;98025.88;;;14.70;65.92
9423;BME280;65863;49.506;10.400;2023-04-29T13:51:52;98023.22;;;14.72;66.36
9423;BME280;65863;49.506;10.400;2023-04-29T13:54:37;98031.31;;;14.51;65.91
9423;BME280;65863;49.506;10.400;2023-04-29T13:57:21;98001.03;;;14.08;66.55
9423;BME280;65863;49.506;10.400;2023-04-29T14:00:06;97986.44;;;14.02;66.92
9423;BME280;65863;49.506;10.400;2023-04-29T14:02:55;98017.59;;;14.12;66.52
9423;BME280;65863;49.506;10.400;2023-04-29T14:05:40;98012.81;;;13.72;66.67
9423;BME280;65863;49.506;10.400;2023-04-29T14:08:24;98010.34;;;13.76;66.95
9423;BME280;65863;49.506;10.400;2023-04-29T14:11:08;98044.22;;;14.19;66.62
9423;BME280;65863;49.506;10.400;2023-04-29T14:13:52;98029.25;;;14.08;65.74
9423;BME280;65863;49.506;10.400;2023-04-29T14:16:36;98032.09;;;14.08;64.38
9423;BME280;65863;49.506;10.400;2023-04-29T14:19:20;98029.16;;;14.41;63.98
9423;BME280;65863;49.506;10.400;2023-04-29T14:22:04;98028.91;;;14.47;63.37
9423;BME280;65863;49.506;10.400;2023-04-29T14:24:54;98049.94;;;15.06;63.01
9423;BME280;65863;49.506;10.400;2023-04-29T14:27:38;97987.22;;;14.90;62.42
9423;BME280;65863;49.506;10.400;2023-04-29T14:30:22;98060.91;;;15.20;61.88
9423;BME280;65863;49.506;10.400;2023-04-29T14:33:07;97971.84;;;14.31;61.62
9423;BME280;65863;49.506;10.400;2023-04-29T14:35:51;98047.00;;;14.61;62.62
9423;BME280;65863;49.506;10.400;2023-04-29T14:38:37;98031.00;;;14.64;63.50
9423;BME280;65863;49.506;10.400;2023-04-29T14:41:21;98048.25;;;14.33;63.72
9423;BME280;65863;49.506;10.400;2023-04-29T14:44:05;98029.31;;;14.43;64.11
9423;BME280;65863;49.506;10.400;2023-04-29T14:46:49;98031.34;;;14.08;64.34
9423;BME280;65863;49.506;10.400;2023-04-29T14:49:33;98027.22;;;13.84;64.64
9423;BME280;65863;49.506;10.400;2023-04-29T14:52:17;98020.56;;;13.64;64.93
9423;BME280;65863;49.506;10.400;2023-04-29T14:55:01;98020.56;;;13.64;66.08
9423;BME280;65863;49.506;10.400;2023-04-29T14:57:45;98023.28;;;13.54;66.59
9423;BME280;65863;49.506;10.400;2023-04-29T15:00:29;98073.81;;;13.92;66.78
9423;BME280;65863;49.506;10.400;2023-04-29T15:03:15;98061.25;;;13.86;67.05
9423;BME280;65863;49.506;10.400;2023-04-29T15:06:02;98022.44;;;13.69;66.98